Omskiy-141 — UGZK — position and weather

sailwx.info

Track history (hours):
 
Tides and Currents Weather Stations Pressure Air Temp Water Temp Dewpoint Dewpoint Depression Visibility Wind Speed Wind Dir Waves Ship Positions

Omskiy-141

Last reported at 2015-Jul-02 11:34 UTC. Time now 2015-Jul-02 12:31 UTC.
Position N 53°45' E 014°24'.

Length 108 m; draft 2.6 m.

Type: Cargo ship. MMSI: 273310600.

Date/timePositionNaut miles runAvg speedWind from/ knotsBaromVisibWave heightAir tempDewpointWater temp
2015-Jul-02 11:34N 53°45' E 014°24'9 9.0
2015-Jul-02 10:34N 53°38' E 014°34'4 3.9
2015-Jul-02 09:32N 53°34' E 014°34'0 0.0
2015-Jul-02 08:32N 53°34' E 014°34'0 0.0
2015-Jul-02 07:32N 53°34' E 014°34'0 0.0
2015-Jul-02 06:32N 53°34' E 014°34'0 0.0
2015-Jul-02 05:32N 53°34' E 014°34'0 0.0
2015-Jul-02 04:32N 53°34' E 014°34'0 0.0
2015-Jul-02 03:26N 53°34' E 014°34'0 0.0
2015-Jul-02 02:32N 53°34' E 014°34'0 0.0
2015-Jul-02 01:11N 53°34' E 014°34'0 0.0
2015-Jul-02 00:32N 53°34' E 014°34'0 0.0
2015-Jul-01 22:17N 53°34' E 014°34'0 0.0
2015-Jul-01 21:32N 53°34' E 014°34'0 0.0
2015-Jul-01 19:29N 53°34' E 014°34'0 0.0
2015-Jul-01 17:23N 53°34' E 014°34'0 0.0
2015-Jul-01 16:23N 53°34' E 014°34'0 0.0
2015-Jul-01 15:23N 53°34' E 014°34'0 0.0
2015-Jul-01 14:29N 53°34' E 014°34'0 0.0
2015-Jul-01 13:29N 53°34' E 014°34'0 0.0
2015-Jul-01 12:32N 53°34' E 014°34'0 0.0
2015-Jul-01 09:29N 53°34' E 014°34'0 0.0
2015-Jul-01 08:29N 53°34' E 014°34'0 0.0
2015-Jul-01 07:29N 53°34' E 014°34'0 0.0
2015-Jul-01 06:20N 53°34' E 014°34'0 0.0
2015-Jul-01 05:17N 53°34' E 014°34'0 0.0
2015-Jul-01 03:29N 53°34' E 014°34'0 0.0
2015-Jun-30 21:17N 53°34' E 014°34'0 0.0
2015-Jun-30 19:26N 53°34' E 014°34'0 0.0
2015-Jun-30 17:26N 53°34' E 014°34'0 0.0
2015-Jun-30 16:29N 53°34' E 014°34'0 0.0
2015-Jun-30 15:17N 53°34' E 014°34'0 0.0
2015-Jun-30 14:23N 53°34' E 014°34'0 0.0
2015-Jun-30 13:29N 53°34' E 014°34'0 0.0
2015-Jun-30 12:32N 53°34' E 014°34'0 0.0
2015-Jun-30 11:32N 53°34' E 014°34'0 0.0
2015-Jun-30 10:29N 53°34' E 014°34'0 0.0
2015-Jun-30 09:32N 53°34' E 014°34'0 0.0
2015-Jun-30 08:26N 53°34' E 014°34'0 0.0
2015-Jun-30 07:32N 53°34' E 014°34'0 0.0
2015-Jun-30 06:32N 53°34' E 014°34'1 0.5
2015-Jun-30 05:33N 53°35' E 014°34'5 5.2
2015-Jun-30 04:33N 53°40' E 014°32'8 8.4
2015-Jun-30 03:33N 53°46' E 014°23'86 7.1
2015-Jun-29 15:23N 54°51' E 015°59'6 7.5
2015-Jun-29 14:33N 54°56' E 016°07'157 7.7
2015-Jun-28 18:16N 56°39' E 019°38'5 7.8
2015-Jun-28 17:33N 56°43' E 019°45'8 8.1
2015-Jun-28 16:33N 56°48' E 019°56'  
2015-Jun-22 18:33N 53°34' E 014°34'0 0.0
2015-Jun-22 17:33N 53°34' E 014°34'0 0.0
2015-Jun-22 16:27N 53°34' E 014°34'0 0.0
2015-Jun-22 13:33N 53°34' E 014°34'0 0.0
2015-Jun-22 12:30N 53°34' E 014°34'  
Track history (hours):
 
Tides and Currents Weather Stations Pressure Air Temp Water Temp Dewpoint Dewpoint Depression Visibility Wind Speed Wind Dir Waves Ship Positions

Omskiy-141

Last reported at 2015-Jul-02 11:34 UTC. Time now 2015-Jul-02 12:31 UTC.
Position N 53°45' E 014°24'.

Length 108 m; draft 2.6 m.

Type: Cargo ship. MMSI: 273310600.

Date/timePositionNaut miles runAvg speedWind from/ knotsBaromVisibWave heightAir tempDewpointWater temp
2015-Jul-02 11:34N 53°45' E 014°24'9 9.0
2015-Jul-02 10:34N 53°38' E 014°34'4 3.9
2015-Jul-02 09:32N 53°34' E 014°34'0 0.0
2015-Jul-02 08:32N 53°34' E 014°34'0 0.0
2015-Jul-02 07:32N 53°34' E 014°34'0 0.0
2015-Jul-02 06:32N 53°34' E 014°34'0 0.0
2015-Jul-02 05:32N 53°34' E 014°34'0 0.0
2015-Jul-02 04:32N 53°34' E 014°34'0 0.0
2015-Jul-02 03:26N 53°34' E 014°34'0 0.0
2015-Jul-02 02:32N 53°34' E 014°34'0 0.0
2015-Jul-02 01:11N 53°34' E 014°34'0 0.0
2015-Jul-02 00:32N 53°34' E 014°34'0 0.0
2015-Jul-01 22:17N 53°34' E 014°34'0 0.0
2015-Jul-01 21:32N 53°34' E 014°34'0 0.0
2015-Jul-01 19:29N 53°34' E 014°34'0 0.0
2015-Jul-01 17:23N 53°34' E 014°34'0 0.0
2015-Jul-01 16:23N 53°34' E 014°34'0 0.0
2015-Jul-01 15:23N 53°34' E 014°34'0 0.0
2015-Jul-01 14:29N 53°34' E 014°34'0 0.0
2015-Jul-01 13:29N 53°34' E 014°34'0 0.0
2015-Jul-01 12:32N 53°34' E 014°34'0 0.0
2015-Jul-01 09:29N 53°34' E 014°34'0 0.0
2015-Jul-01 08:29N 53°34' E 014°34'0 0.0
2015-Jul-01 07:29N 53°34' E 014°34'0 0.0
2015-Jul-01 06:20N 53°34' E 014°34'0 0.0
2015-Jul-01 05:17N 53°34' E 014°34'0 0.0
2015-Jul-01 03:29N 53°34' E 014°34'0 0.0
2015-Jun-30 21:17N 53°34' E 014°34'0 0.0
2015-Jun-30 19:26N 53°34' E 014°34'0 0.0
2015-Jun-30 17:26N 53°34' E 014°34'0 0.0
2015-Jun-30 16:29N 53°34' E 014°34'0 0.0
2015-Jun-30 15:17N 53°34' E 014°34'0 0.0
2015-Jun-30 14:23N 53°34' E 014°34'0 0.0
2015-Jun-30 13:29N 53°34' E 014°34'0 0.0
2015-Jun-30 12:32N 53°34' E 014°34'0 0.0
2015-Jun-30 11:32N 53°34' E 014°34'0 0.0
2015-Jun-30 10:29N 53°34' E 014°34'0 0.0
2015-Jun-30 09:32N 53°34' E 014°34'0 0.0
2015-Jun-30 08:26N 53°34' E 014°34'0 0.0
2015-Jun-30 07:32N 53°34' E 014°34'0 0.0
2015-Jun-30 06:32N 53°34' E 014°34'1 0.5
2015-Jun-30 05:33N 53°35' E 014°34'5 5.2
2015-Jun-30 04:33N 53°40' E 014°32'8 8.4
2015-Jun-30 03:33N 53°46' E 014°23'86 7.1
2015-Jun-29 15:23N 54°51' E 015°59'6 7.5
2015-Jun-29 14:33N 54°56' E 016°07'157 7.7
2015-Jun-28 18:16N 56°39' E 019°38'5 7.8
2015-Jun-28 17:33N 56°43' E 019°45'8 8.1
2015-Jun-28 16:33N 56°48' E 019°56'  
2015-Jun-22 18:33N 53°34' E 014°34'0 0.0
2015-Jun-22 17:33N 53°34' E 014°34'0 0.0
2015-Jun-22 16:27N 53°34' E 014°34'0 0.0
2015-Jun-22 13:33N 53°34' E 014°34'0 0.0
2015-Jun-22 12:30N 53°34' E 014°34'  

Dump ship's entire track history